Time;durP1;ratioP1;P1;durP2;ratioP2;P2;SDS_P1;SDS_P2;PMS_P1;PMS_P2;Temp;Humidity;BMP_temperature;BMP_pressure;BME280_temperature;BME280_humidity;BME280_pressure;Samples;Min_cycle;Max_cycle;Signal;HPM_P1;HPM_P2
2022/03/01 00:00:58;;;;;;;7.83;7.03;;;;;;;2.44;48.65;96631.22;4346919;32;20188;-59
2022/03/01 00:03:25;;;;;;;8.13;7.03;;;;;;;2.36;48.27;96626.22;4338489;32;20313;-59
2022/03/01 00:05:53;;;;;;;9.03;6.97;;;;;;;2.29;48.44;96622.81;4320343;32;20343;-58
2022/03/01 00:08:20;;;;;;;7.65;6.43;;;;;;;2.21;48.73;96626.50;4330444;32;20281;-59
2022/03/01 00:10:48;;;;;;;10.18;6.18;;;;;;;2.04;48.77;96620.94;4356568;32;20192;-59
2022/03/01 00:13:16;;;;;;;8.15;7.05;;;;;;;2.02;49.02;96625.56;4347834;32;20205;-59
2022/03/01 00:15:45;;;;;;;9.45;7.12;;;;;;;2.06;49.06;96623.34;4363970;32;20181;-59
2022/03/01 00:18:12;;;;;;;7.07;6.37;;;;;;;2.17;49.08;96617.47;4370797;32;20186;-60
2022/03/01 00:20:40;;;;;;;7.37;6.20;;;;;;;2.05;49.32;96614.69;4355340;32;20192;-59
2022/03/01 00:23:26;;;;;;;8.23;7.28;;;;;;;2.40;48.48;96620.38;4340057;32;20204;-57
2022/03/01 00:25:53;;;;;;;7.33;6.40;;;;;;;2.36;48.44;96613.94;4362903;32;20196;-58
2022/03/01 00:28:19;;;;;;;8.75;6.57;;;;;;;2.45;48.13;96616.31;4352763;32;20278;-60
2022/03/01 00:30:48;;;;;;;7.43;6.72;;;;;;;2.45;48.18;96611.91;4362214;32;20188;-60
2022/03/01 00:33:15;;;;;;;7.80;6.33;;;;;;;2.49;47.71;96614.91;4314620;32;20301;-62
2022/03/01 00:35:41;;;;;;;9.07;6.75;;;;;;;2.55;47.80;96609.59;4338531;32;20301;-60
2022/03/01 00:38:07;;;;;;;10.13;6.40;;;;;;;2.32;48.44;96617.19;4343064;32;20234;-59
2022/03/01 00:40:36;;;;;;;6.93;6.22;;;;;;;2.04;48.58;96613.09;4359506;32;20197;-59
2022/03/01 00:43:02;;;;;;;7.62;6.55;;;;;;;2.16;48.66;96610.63;4362189;32;20269;-59
2022/03/01 00:45:29;;;;;;;7.68;6.87;;;;;;;2.32;48.12;96604.91;4347847;32;20177;-59
2022/03/01 00:47:56;;;;;;;8.82;6.65;;;;;;;2.13;48.47;96612.84;4340323;32;20193;-59
2022/03/01 00:50:25;;;;;;;7.75;6.70;;;;;;;1.97;48.78;96614.12;4327050;32;20205;-59
2022/03/01 00:52:51;;;;;;;6.97;6.23;;;;;;;2.15;48.29;96600.34;4330399;32;20193;-59
2022/03/01 00:55:17;;;;;;;6.68;5.53;;;;;;;2.19;47.94;96606.78;4350174;32;20264;-59
2022/03/01 00:57:43;;;;;;;7.27;6.23;;;;;;;1.90;48.58;96605.47;4373140;32;20239;-60
2022/03/01 01:00:12;;;;;;;7.37;6.50;;;;;;;1.57;49.51;96595.13;4316487;32;20215;-60
2022/03/01 01:02:39;;;;;;;8.20;6.25;;;;;;;1.81;49.20;96594.47;4317641;32;20196;-60
2022/03/01 01:05:05;;;;;;;8.60;6.30;;;;;;;1.93;48.88;96587.56;4323231;32;20211;-60
2022/03/01 01:07:30;;;;;;;7.23;5.67;;;;;;;1.72;49.46;96590.44;4343377;32;20275;-60
2022/03/01 01:09:55;;;;;;;7.70;5.93;;;;;;;2.13;48.76;96584.06;4325047;32;20189;-60
2022/03/01 01:12:24;;;;;;;6.57;5.83;;;;;;;1.81;48.92;96578.75;4335430;32;20181;-60
2022/03/01 01:14:52;;;;;;;7.32;6.00;;;;;;;1.87;48.94;96585.75;4334819;32;20196;-60
2022/03/01 01:17:20;;;;;;;8.00;7.20;;;;;;;2.05;49.01;96577.25;4337885;32;20200;-60
2022/03/01 01:19:45;;;;;;;8.00;6.60;;;;;;;1.92;49.21;96585.16;4340951;32;20190;-61
2022/03/01 01:24:58;;;;;;;6.87;5.82;;;;;;;1.80;49.77;96587.63;4358745;32;20220;-61
2022/03/01 01:27:25;;;;;;;8.70;7.00;;;;;;;1.91;49.93;96580.91;4356588;32;20342;-61
2022/03/01 01:29:51;;;;;;;7.22;6.35;;;;;;;2.02;49.52;96583.72;4372797;32;20195;-60
2022/03/01 01:32:17;;;;;;;7.28;6.43;;;;;;;2.02;49.66;96581.09;4349095;32;20181;-61
2022/03/01 01:34:43;;;;;;;6.53;5.93;;;;;;;1.63;50.35;96582.03;4351832;32;20200;-61
2022/03/01 01:37:11;;;;;;;8.13;6.57;;;;;;;1.33;51.30;96581.69;4348590;32;20244;-61
2022/03/01 01:39:37;;;;;;;10.00;7.55;;;;;;;1.42;51.20;96578.87;4349860;32;20185;-63
2022/03/01 01:42:04;;;;;;;8.15;6.75;;;;;;;1.56;50.94;96568.19;4362828;32;20180;-66
2022/03/01 01:44:31;;;;;;;6.72;6.12;;;;;;;1.56;50.95;96559.53;4369821;32;20211;-62
2022/03/01 01:46:56;;;;;;;7.47;6.65;;;;;;;1.42;51.10;96560.56;4371537;32;20189;-61
2022/03/01 01:49:23;;;;;;;10.30;6.70;;;;;;;1.46;51.22;96562.56;4346738;32;20262;-60
2022/03/01 01:51:48;;;;;;;8.85;6.78;;;;;;;1.45;51.34;96557.56;4325836;32;20197;-61
2022/03/01 01:54:15;;;;;;;7.63;6.67;;;;;;;1.60;50.97;96563.34;4364412;32;20228;-62
2022/03/01 01:56:41;;;;;;;6.68;6.07;;;;;;;1.63;51.05;96557.69;4347793;32;20192;-60
2022/03/01 01:59:06;;;;;;;7.70;6.37;;;;;;;1.70;50.53;96555.84;4337452;32;20185;-61
2022/03/01 02:01:34;;;;;;;7.60;6.40;;;;;;;1.67;50.55;96559.69;4343563;32;20185;-61
2022/03/01 02:04:01;;;;;;;7.25;6.55;;;;;;;1.37;51.06;96567.22;4338780;32;20197;-61
2022/03/01 02:06:35;;;;;;;8.45;7.20;;;;;;;1.36;51.32;96555.16;4333835;32;20208;-61
2022/03/01 02:09:02;;;;;;;8.02;6.37;;;;;;;1.12;51.61;96555.78;4361866;32;20207;-61
2022/03/01 02:11:29;;;;;;;7.37;6.60;;;;;;;0.76;52.56;96547.59;4373564;32;20173;-61
2022/03/01 02:13:55;;;;;;;8.63;6.53;;;;;;;0.97;52.06;96550.00;4332891;32;20189;-61
2022/03/01 02:16:22;;;;;;;8.03;6.67;;;;;;;1.17;51.65;96548.16;4344804;32;20223;-61
2022/03/01 02:18:49;;;;;;;7.57;6.85;;;;;;;0.80;52.42;96544.38;4335844;32;20251;-61
2022/03/01 02:21:16;;;;;;;8.32;5.80;;;;;;;1.05;51.69;96541.94;4331446;32;20225;-62
2022/03/01 02:23:43;;;;;;;8.35;6.53;;;;;;;0.96;51.75;96532.72;4353353;32;20192;-62
2022/03/01 02:26:13;;;;;;;6.62;5.78;;;;;;;0.89;52.00;96532.72;4336562;32;20189;-61
2022/03/01 02:28:44;;;;;;;7.37;6.32;;;;;;;1.03;51.75;96526.47;4362386;32;20207;-63
2022/03/01 02:31:11;;;;;;;7.62;6.68;;;;;;;1.20;51.41;96523.44;4358125;32;20199;-61
2022/03/01 02:33:37;;;;;;;7.60;6.40;;;;;;;0.93;51.63;96523.47;4356226;32;20278;-61
2022/03/01 02:36:07;;;;;;;7.93;6.78;;;;;;;0.95;51.89;96516.22;4350264;32;20294;-61
2022/03/01 02:38:33;;;;;;;7.90;6.43;;;;;;;1.01;51.64;96512.81;4349107;32;20192;-61
2022/03/01 02:40:59;;;;;;;7.85;6.47;;;;;;;0.68;52.19;96522.47;4346039;32;20227;-61
2022/03/01 02:43:31;;;;;;;7.53;6.43;;;;;;;0.77;52.16;96521.28;4351710;32;20205;-61
2022/03/01 02:45:58;;;;;;;7.20;6.45;;;;;;;0.82;52.37;96521.47;4368019;32;20172;-61
2022/03/01 02:48:27;;;;;;;9.70;6.93;;;;;;;0.97;51.95;96534.31;4359692;32;20185;-61
2022/03/01 02:50:53;;;;;;;6.87;6.25;;;;;;;0.89;52.17;96527.47;4374540;32;20231;-61
2022/03/01 02:53:20;;;;;;;7.97;6.30;;;;;;;0.98;52.08;96533.31;4362329;32;20207;-61
2022/03/01 02:55:46;;;;;;;9.03;6.83;;;;;;;0.69;52.39;96524.87;4286009;32;20186;-61
2022/03/01 02:58:13;;;;;;;7.90;6.85;;;;;;;1.01;52.03;96527.69;4354111;32;20188;-62
2022/03/01 03:00:44;;;;;;;7.12;6.43;;;;;;;1.08;51.84;96528.47;4322529;32;20190;-61
2022/03/01 03:03:13;;;;;;;7.20;6.45;;;;;;;1.22;51.42;96522.22;4317520;32;20186;-61
2022/03/01 03:05:39;;;;;;;7.60;6.07;;;;;;;1.28;51.21;96526.63;4305691;32;20243;-61
2022/03/01 03:08:05;;;;;;;9.05;6.78;;;;;;;1.26;51.33;96527.81;4348421;32;20245;-61
2022/03/01 03:10:37;;;;;;;8.93;7.00;;;;;;;1.03;51.80;96518.66;4346778;32;20275;-61
2022/03/01 03:13:03;;;;;;;7.40;6.10;;;;;;;1.04;52.05;96512.38;4352663;32;20289;-61
2022/03/01 03:15:32;;;;;;;10.05;6.82;;;;;;;1.21;51.64;96519.81;4367660;32;20200;-61
2022/03/01 03:17:58;;;;;;;7.20;6.50;;;;;;;1.13;51.62;96517.41;4333590;32;20252;-61
2022/03/01 03:20:25;;;;;;;9.23;6.78;;;;;;;0.95;52.12;96511.00;4343815;32;20193;-61
2022/03/01 03:22:51;;;;;;;8.98;6.57;;;;;;;0.83;52.48;96511.84;4370840;32;20192;-61
2022/03/01 03:25:17;;;;;;;7.68;6.28;;;;;;;0.86;52.75;96516.63;4361314;32;20185;-61
2022/03/01 03:27:43;;;;;;;7.32;6.60;;;;;;;0.80;52.75;96509.63;4331593;32;20203;-62
2022/03/01 03:30:11;;;;;;;9.97;6.80;;;;;;;0.87;52.77;96505.19;4339401;32;20197;-61
2022/03/01 03:32:38;;;;;;;9.45;6.87;;;;;;;0.85;52.51;96508.00;4367294;32;20231;-60
2022/03/01 03:35:05;;;;;;;7.22;6.22;;;;;;;0.88;52.74;96498.94;4347114;32;20215;-61
2022/03/01 03:37:32;;;;;;;10.93;6.60;;;;;;;1.01;52.52;96504.97;4305657;32;20266;-60
2022/03/01 03:39:58;;;;;;;7.43;5.78;;;;;;;1.14;52.38;96492.88;4358081;32;20185;-60
2022/03/01 03:42:25;;;;;;;6.70;5.83;;;;;;;1.08;52.53;96493.69;4370686;32;20270;-61
2022/03/01 03:44:53;;;;;;;7.40;6.50;;;;;;;1.00;52.55;96481.66;4332538;32;20205;-61
2022/03/01 03:47:19;;;;;;;6.50;5.90;;;;;;;0.75;53.08;96494.56;4340725;32;20207;-62
2022/03/01 03:49:46;;;;;;;6.97;6.27;;;;;;;0.83;53.10;96491.72;4357292;32;20291;-62
2022/03/01 03:52:14;;;;;;;8.30;6.85;;;;;;;0.86;52.88;96491.31;4377612;32;20252;-62
2022/03/01 03:54:41;;;;;;;8.68;6.85;;;;;;;0.85;52.82;96486.28;4373787;32;20191;-61
2022/03/01 03:57:08;;;;;;;8.02;6.18;;;;;;;0.91;52.85;96481.06;4355526;32;20194;-61
2022/03/01 03:59:36;;;;;;;7.90;6.55;;;;;;;0.96;52.89;96475.25;4352006;32;20193;-61
2022/03/01 04:02:04;;;;;;;7.62;6.32;;;;;;;1.13;52.37;96479.03;4350371;32;20325;-61
2022/03/01 04:04:30;;;;;;;7.75;6.50;;;;;;;0.89;53.04;96479.66;4361803;32;20189;-61
2022/03/01 04:06:56;;;;;;;7.95;6.37;;;;;;;0.97;52.69;96479.47;4373384;32;20268;-61
2022/03/01 04:09:24;;;;;;;8.03;6.07;;;;;;;0.83;53.08;96481.28;4351201;32;20234;-61
2022/03/01 04:11:51;;;;;;;7.97;6.12;;;;;;;0.75;53.45;96476.28;4347140;32;20185;-60
2022/03/01 04:14:18;;;;;;;7.78;6.60;;;;;;;0.52;53.77;96481.91;4354373;32;20188;-61
2022/03/01 04:16:44;;;;;;;7.28;5.65;;;;;;;0.65;53.63;96476.69;4354408;32;20257;-61
2022/03/01 04:19:10;;;;;;;8.02;6.60;;;;;;;0.51;53.87;96487.34;4339878;32;20203;-61
2022/03/01 04:21:39;;;;;;;9.20;6.90;;;;;;;0.43;53.92;96488.31;4353301;32;20177;-61
2022/03/01 04:24:07;;;;;;;8.55;6.57;;;;;;;0.47;53.96;96486.13;4349977;32;20223;-61
2022/03/01 04:26:37;;;;;;;8.65;6.78;;;;;;;0.29;54.57;96484.12;4333896;32;20190;-61
2022/03/01 04:29:03;;;;;;;7.45;5.85;;;;;;;-0.11;55.53;96491.88;4372492;32;20200;-61
2022/03/01 04:31:30;;;;;;;7.25;6.40;;;;;;;0.15;55.47;96478.09;4364827;32;20250;-61
2022/03/01 04:34:00;;;;;;;8.90;6.65;;;;;;;0.32;55.25;96478.50;4338089;32;20242;-61
2022/03/01 04:36:26;;;;;;;9.48;6.53;;;;;;;0.14;55.53;96486.91;4347895;32;20189;-61
2022/03/01 04:38:53;;;;;;;7.15;6.03;;;;;;;0.17;55.28;96483.12;4343590;32;20280;-61
2022/03/01 04:41:20;;;;;;;8.30;7.22;;;;;;;0.50;54.93;96486.53;4362999;32;20193;-61
2022/03/01 04:43:46;;;;;;;7.35;6.22;;;;;;;0.57;54.44;96487.34;4353619;32;20204;-61
2022/03/01 04:46:12;;;;;;;6.78;6.05;;;;;;;0.27;55.32;96491.34;4375190;32;20185;-64
2022/03/01 04:48:40;;;;;;;9.17;6.53;;;;;;;0.49;54.91;96478.91;4329509;32;20249;-61
2022/03/01 04:51:06;;;;;;;7.20;5.82;;;;;;;0.38;55.28;96476.91;4338721;32;20237;-61
2022/03/01 04:53:32;;;;;;;9.15;6.78;;;;;;;0.16;55.15;96481.50;4338840;32;20276;-61
2022/03/01 04:55:59;;;;;;;9.23;6.20;;;;;;;0.32;55.21;96475.91;4358138;32;20196;-61
2022/03/01 04:58:26;;;;;;;6.68;6.07;;;;;;;0.34;55.05;96473.88;4316720;32;20220;-61
2022/03/01 05:00:54;;;;;;;6.65;6.00;;;;;;;0.30;55.32;96480.50;4336384;32;20181;-61
2022/03/01 05:03:23;;;;;;;6.30;5.65;;;;;;;0.04;55.98;96481.28;4365533;32;20202;-60
2022/03/01 05:05:51;;;;;;;8.70;5.97;;;;;;;0.11;55.42;96486.50;4356770;32;20185;-61
2022/03/01 05:08:17;;;;;;;6.18;5.60;;;;;;;-0.16;56.42;96481.22;4367472;32;20185;-61
2022/03/01 05:10:44;;;;;;;8.63;5.75;;;;;;;-0.28;56.18;96487.22;4352238;32;20238;-61
2022/03/01 05:13:17;;;;;;;7.00;5.78;;;;;;;-0.42;56.50;96486.41;4355892;32;20259;-60
2022/03/01 05:15:43;;;;;;;6.90;5.87;;;;;;;-0.38;56.90;96482.38;4352998;32;20199;-61
2022/03/01 05:18:09;;;;;;;8.03;6.07;;;;;;;-0.50;56.76;96487.34;4339615;32;20173;-61
2022/03/01 05:20:37;;;;;;;8.68;6.20;;;;;;;-0.28;56.46;96487.22;4368576;32;20294;-61
2022/03/01 05:23:03;;;;;;;7.05;5.60;;;;;;;-0.30;56.40;96487.41;4339263;32;20193;-61
2022/03/01 05:25:29;;;;;;;7.10;5.43;;;;;;;-0.38;56.77;96483.19;4350877;32;20273;-61
2022/03/01 05:27:59;;;;;;;6.37;5.72;;;;;;;-0.24;56.62;96484.03;4362700;32;20229;-61
2022/03/01 05:30:25;;;;;;;8.75;5.82;;;;;;;-0.39;56.81;96496.41;4349379;32;20252;-61
2022/03/01 05:32:53;;;;;;;6.62;5.57;;;;;;;-0.04;56.25;96495.31;4333838;32;20299;-61
2022/03/01 05:35:23;;;;;;;6.93;6.22;;;;;;;-0.18;56.17;96498.88;4358296;32;20186;-61
2022/03/01 05:37:52;;;;;;;7.25;5.82;;;;;;;0.03;55.80;96502.34;4352857;32;20196;-61
2022/03/01 05:40:22;;;;;;;7.35;5.62;;;;;;;0.21;55.47;96497.34;4353800;32;20312;-61
2022/03/01 05:42:50;;;;;;;6.07;5.47;;;;;;;0.17;55.14;96504.78;4350731;32;20181;-61
2022/03/01 05:45:16;;;;;;;5.93;5.07;;;;;;;0.14;55.02;96501.78;4351675;32;20215;-61
2022/03/01 05:47:43;;;;;;;6.37;5.63;;;;;;;0.12;55.45;96501.16;4360938;32;20197;-63
2022/03/01 05:50:11;;;;;;;7.43;5.82;;;;;;;0.10;55.03;96500.56;4364828;32;20250;-61
2022/03/01 05:52:39;;;;;;;8.07;5.35;;;;;;;0.25;54.94;96509.00;4350465;32;20223;-60
2022/03/01 05:55:10;;;;;;;7.95;5.50;;;;;;;0.15;55.00;96511.19;4363126;32;20267;-61
2022/03/01 05:57:36;;;;;;;7.80;5.87;;;;;;;0.24;54.76;96512.59;4338312;32;20194;-61
2022/03/01 06:00:10;;;;;;;6.00;5.40;;;;;;;0.14;55.26;96518.22;4372883;32;20256;-61
2022/03/01 06:02:41;;;;;;;9.07;5.68;;;;;;;0.05;55.41;96534.25;4345761;32;20177;-60
2022/03/01 06:05:07;;;;;;;7.87;5.87;;;;;;;0.00;54.95;96535.63;4322511;32;20193;-61
2022/03/01 06:07:32;;;;;;;7.07;5.23;;;;;;;0.03;55.50;96536.22;4360777;32;20215;-61
2022/03/01 06:09:59;;;;;;;6.50;5.27;;;;;;;0.14;54.83;96539.09;4351843;32;20181;-61
2022/03/01 06:12:25;;;;;;;5.82;5.03;;;;;;;0.26;54.76;96531.47;4344356;32;20185;-61
2022/03/01 06:14:52;;;;;;;9.88;5.20;;;;;;;0.41;54.43;96534.72;4352872;32;20226;-61
2022/03/01 06:17:20;;;;;;;5.57;4.95;;;;;;;0.27;54.52;96543.53;4330718;32;20267;-60
2022/03/01 06:19:46;;;;;;;8.20;4.93;;;;;;;0.16;54.96;96539.69;4358785;32;20317;-61
2022/03/01 06:22:13;;;;;;;5.93;5.32;;;;;;;-0.04;55.68;96537.03;4366564;32;20223;-62
2022/03/01 06:24:40;;;;;;;4.82;4.43;;;;;;;0.05;55.30;96539.47;4344563;32;20205;-61
2022/03/01 06:27:06;;;;;;;5.07;4.57;;;;;;;0.24;54.78;96544.72;4344753;32;20287;-61
2022/03/01 06:29:37;;;;;;;6.20;5.07;;;;;;;0.28;54.73;96534.69;4336035;32;20348;-61
2022/03/01 06:32:06;;;;;;;8.10;4.72;;;;;;;0.15;54.51;96539.91;4336417;32;20219;-60
2022/03/01 06:34:34;;;;;;;5.55;4.80;;;;;;;-0.06;55.99;96541.66;4360942;32;20257;-60
2022/03/01 06:37:00;;;;;;;4.90;4.40;;;;;;;0.08;55.24;96534.66;4348107;32;20199;-61
2022/03/01 06:39:28;;;;;;;7.90;5.47;;;;;;;0.30;54.87;96537.91;4354196;32;20251;-61
2022/03/01 06:41:54;;;;;;;6.55;4.87;;;;;;;0.18;54.93;96539.50;4374149;32;20259;-61
2022/03/01 06:44:21;;;;;;;6.95;5.43;;;;;;;0.43;54.30;96532.69;4363782;32;20230;-61
2022/03/01 06:46:48;;;;;;;7.78;5.10;;;;;;;0.32;54.54;96541.13;4342997;32;20207;-61
2022/03/01 06:49:13;;;;;;;4.70;4.30;;;;;;;-0.02;55.57;96547.28;4327222;32;20181;-61
2022/03/01 06:51:38;;;;;;;5.73;4.60;;;;;;;0.24;54.80;96551.75;4332870;32;20284;-61
2022/03/01 06:54:04;;;;;;;7.23;5.37;;;;;;;0.20;55.11;96548.75;4350172;32;20202;-61
2022/03/01 06:56:30;;;;;;;5.83;4.80;;;;;;;0.40;54.30;96551.38;4341190;32;20197;-61
2022/03/01 06:58:55;;;;;;;6.43;5.20;;;;;;;0.25;54.91;96554.16;4365570;32;20232;-61
2022/03/01 07:01:22;;;;;;;5.83;5.33;;;;;;;0.44;54.43;96554.38;4318747;32;20188;-61
2022/03/01 07:03:47;;;;;;;5.32;4.82;;;;;;;0.56;54.10;96558.81;4370520;32;20185;-61
2022/03/01 07:06:12;;;;;;;5.07;4.57;;;;;;;0.47;53.96;96564.44;4362165;32;20196;-61
2022/03/01 07:08:45;;;;;;;4.67;4.27;;;;;;;0.53;53.94;96563.63;4375100;32;20200;-61
2022/03/01 07:11:12;;;;;;;6.75;5.40;;;;;;;0.62;53.70;96565.84;4370181;32;20184;-62
2022/03/01 07:13:39;;;;;;;9.83;4.73;;;;;;;0.56;53.71;96566.66;4361147;32;20287;-61
2022/03/01 07:16:05;;;;;;;7.28;5.07;;;;;;;0.57;53.49;96565.66;4338585;32;20335;-61
2022/03/01 07:18:32;;;;;;;5.57;4.53;;;;;;;0.59;53.54;96561.03;4364857;32;20185;-61
2022/03/01 07:20:58;;;;;;;6.25;4.65;;;;;;;0.63;53.16;96569.25;4346509;32;20236;-61
2022/03/01 07:23:25;;;;;;;4.60;4.25;;;;;;;0.54;53.32;96560.03;4351788;32;20185;-60
2022/03/01 07:25:51;;;;;;;6.05;5.22;;;;;;;0.24;53.95;96570.00;4348472;32;20290;-61
2022/03/01 07:28:16;;;;;;;8.30;4.80;;;;;;;0.43;54.16;96558.00;4341627;32;20173;-61
2022/03/01 07:30:42;;;;;;;7.05;5.40;;;;;;;0.63;53.22;96562.22;4337240;32;20185;-61
2022/03/01 07:33:09;;;;;;;6.53;4.97;;;;;;;0.56;53.55;96555.41;4325979;32;20200;-61
2022/03/01 07:35:36;;;;;;;6.93;5.20;;;;;;;0.54;53.44;96566.06;4284679;32;20270;-61
2022/03/01 07:38:03;;;;;;;7.97;5.68;;;;;;;0.44;53.48;96570.84;4334981;32;20208;-61
2022/03/01 07:40:31;;;;;;;6.70;5.30;;;;;;;0.19;54.36;96560.19;4355661;32;20203;-61
2022/03/01 07:42:59;;;;;;;7.12;5.50;;;;;;;0.06;55.22;96567.94;4302096;32;20193;-61
2022/03/01 07:45:27;;;;;;;9.10;5.18;;;;;;;0.16;54.72;96557.97;4357583;32;20189;-61
2022/03/01 07:47:54;;;;;;;5.70;5.07;;;;;;;0.23;54.77;96563.16;4285076;32;20296;-61
2022/03/01 07:50:22;;;;;;;8.13;5.70;;;;;;;0.31;54.37;96555.16;4334711;32;20192;-61
2022/03/01 07:52:52;;;;;;;6.12;5.50;;;;;;;0.45;54.29;96554.19;4326323;32;20209;-61
2022/03/01 07:55:23;;;;;;;5.75;5.03;;;;;;;0.77;53.49;96557.84;4268904;32;20194;-61
2022/03/01 07:57:49;;;;;;;5.72;5.22;;;;;;;0.93;52.93;96560.03;4315612;32;20288;-61
2022/03/01 08:00:19;;;;;;;5.57;5.03;;;;;;;1.08;52.82;96548.56;4344406;32;20185;-63
2022/03/01 08:02:45;;;;;;;5.57;5.07;;;;;;;1.10;52.78;96552.56;4261655;33;20194;-61
2022/03/01 08:05:15;;;;;;;6.10;5.20;;;;;;;1.04;52.92;96551.56;4329830;32;20260;-61
2022/03/01 08:07:42;;;;;;;6.82;5.28;;;;;;;1.16;53.00;96549.16;4280808;33;20197;-62
2022/03/01 08:10:30;;;;;;;6.80;5.10;;;;;;;1.35;52.16;96550.13;4270020;32;20193;-61
2022/03/01 08:13:00;;;;;;;6.90;5.25;;;;;;;1.26;51.84;96549.53;4323717;32;20284;-61
2022/03/01 08:15:28;;;;;;;8.20;5.43;;;;;;;1.30;51.92;96550.72;4354925;32;20220;-61
2022/03/01 08:17:57;;;;;;;5.95;5.35;;;;;;;1.25;52.15;96545.31;4340325;32;20184;-61
2022/03/01 08:20:23;;;;;;;7.32;5.68;;;;;;;1.22;51.99;96547.56;4270667;32;20196;-60
2022/03/01 08:22:50;;;;;;;10.50;5.37;;;;;;;1.35;52.14;96545.69;4271359;32;20235;-60
2022/03/01 08:25:33;;;;;;;7.22;5.43;;;;;;;1.36;51.78;96542.09;4261349;33;20185;-61
2022/03/01 08:28:04;;;;;;;6.72;5.10;;;;;;;1.66;51.25;96544.22;4281058;32;20261;-60
2022/03/01 08:30:32;;;;;;;5.68;4.95;;;;;;;1.65;51.28;96543.41;4284654;33;20186;-60
2022/03/01 08:32:58;;;;;;;6.25;5.57;;;;;;;1.77;50.92;96550.59;4351408;32;20197;-60
2022/03/01 08:35:25;;;;;;;5.93;5.37;;;;;;;1.98;50.08;96550.31;4343847;32;20185;-60
2022/03/01 08:37:52;;;;;;;7.72;6.00;;;;;;;2.03;49.84;96559.16;4350529;32;20197;-60
2022/03/01 08:40:22;;;;;;;7.60;5.80;;;;;;;2.05;49.56;96549.28;4314947;32;20240;-60
2022/03/01 08:42:48;;;;;;;6.18;5.15;;;;;;;2.01;49.70;96542.84;4374237;32;20281;-60
2022/03/01 08:45:14;;;;;;;6.18;5.57;;;;;;;2.20;49.63;96546.38;4354714;32;20181;-61
2022/03/01 08:47:42;;;;;;;6.20;5.60;;;;;;;2.39;49.27;96548.06;4344281;32;20192;-60
2022/03/01 08:50:10;;;;;;;5.73;5.23;;;;;;;2.55;48.68;96546.75;4351960;32;20193;-59
2022/03/01 08:52:35;;;;;;;7.17;5.10;;;;;;;2.36;48.01;96550.31;4345781;32;20384;-60
2022/03/01 08:55:06;;;;;;;6.60;5.87;;;;;;;2.57;47.68;96549.97;4342040;32;20412;-59
2022/03/01 08:57:33;;;;;;;7.40;5.95;;;;;;;2.49;47.19;96547.63;4346025;32;20349;-59
2022/03/01 09:00:12;;;;;;;7.62;5.70;;;;;;;2.53;47.59;96548.78;4339860;32;20211;-59
2022/03/01 09:02:41;;;;;;;5.60;5.10;;;;;;;2.73;46.85;96541.56;4373005;32;20184;-59
2022/03/01 09:05:07;;;;;;;7.62;5.25;;;;;;;2.50;46.93;96546.56;4360816;32;20243;-59
2022/03/01 09:07:35;;;;;;;8.50;5.13;;;;;;;2.50;46.74;96551.00;4353177;32;20192;-59
2022/03/01 09:10:24;;;;;;;6.43;5.30;;;;;;;2.66;46.88;96535.59;4342587;32;20185;-59
2022/03/01 09:12:51;;;;;;;7.15;5.40;;;;;;;2.73;46.73;96538.16;4321406;32;20277;-59
2022/03/01 09:15:19;;;;;;;5.53;4.72;;;;;;;2.69;46.66;96535.19;4350058;32;20188;-60
2022/03/01 09:17:45;;;;;;;5.70;5.20;;;;;;;2.81;46.71;96531.84;4368350;32;20256;-59
2022/03/01 09:20:25;;;;;;;7.15;5.30;;;;;;;2.83;46.81;96530.63;4352858;32;20284;-59
2022/03/01 09:22:54;;;;;;;6.85;5.00;;;;;;;2.93;47.03;96530.12;4349275;32;20201;-59
2022/03/01 09:25:20;;;;;;;6.90;5.03;;;;;;;3.00;47.00;96531.69;4326664;32;20194;-60
2022/03/01 09:27:46;;;;;;;6.73;5.30;;;;;;;3.08;45.74;96530.63;4341642;32;20319;-59
2022/03/01 09:30:13;;;;;;;6.63;4.70;;;;;;;3.07;45.80;96534.25;4368663;32;20238;-60
2022/03/01 09:32:40;;;;;;;5.00;4.50;;;;;;;3.08;46.13;96528.81;4341059;32;20345;-58
2022/03/01 09:35:06;;;;;;;5.50;4.77;;;;;;;3.20;45.60;96521.00;4351979;32;20285;-58
2022/03/01 09:37:32;;;;;;;5.57;4.60;;;;;;;3.37;45.41;96521.25;4382710;32;20373;-58
2022/03/01 09:40:05;;;;;;;5.27;4.13;;;;;;;3.47;44.94;96518.13;4353929;32;20299;-59
2022/03/01 09:42:35;;;;;;;6.90;4.93;;;;;;;3.44;44.82;96511.50;4350130;32;20330;-58
2022/03/01 09:45:02;;;;;;;7.23;5.37;;;;;;;3.56;44.99;96506.31;4348870;32;20281;-59
2022/03/01 09:47:31;;;;;;;5.17;4.40;;;;;;;3.51;44.76;96506.97;4353993;32;20289;-58
2022/03/01 09:49:57;;;;;;;7.17;5.13;;;;;;;3.47;44.85;96502.37;4359206;32;20285;-57
2022/03/01 09:52:27;;;;;;;11.27;4.83;;;;;;;3.52;45.14;96494.66;4341180;32;20335;-56
2022/03/01 09:54:53;;;;;;;7.23;5.20;;;;;;;5.53;62.23;96495.37;4348996;32;20341;-58
2022/03/01 09:57:20;;;;;;;6.10;5.10;;;;;;;7.07;56.79;96483.88;4337852;32;20282;-56
2022/03/01 09:59:48;;;;;;;6.17;4.87;;;;;;;7.51;56.22;96474.97;4366987;32;20328;-59
2022/03/01 10:02:16;;;;;;;6.17;4.77;;;;;;;7.80;49.79;96467.69;4337942;32;20280;-59
2022/03/01 10:05:02;;;;;;;7.00;4.83;;;;;;;7.57;45.46;96474.00;4365978;32;20306;-58
2022/03/01 10:07:31;;;;;;;6.93;4.60;;;;;;;7.89;46.67;96475.97;4364103;32;20284;-58
2022/03/01 10:10:16;;;;;;;9.63;4.37;;;;;;;7.89;47.83;96476.78;4332496;32;20331;-59
2022/03/01 10:13:00;;;;;;;6.67;4.97;;;;;;;7.92;49.92;96470.16;4354200;32;20296;-58
2022/03/01 10:15:28;;;;;;;7.00;4.77;;;;;;;8.67;48.00;96465.91;4374675;32;20350;-58
2022/03/01 10:17:56;;;;;;;8.30;4.93;;;;;;;8.47;45.19;96472.63;4358738;32;20319;-58
2022/03/01 10:20:23;;;;;;;6.50;4.40;;;;;;;8.76;45.74;96475.75;4359536;32;20284;-58
2022/03/01 10:23:01;;;;;;;4.80;4.27;;;;;;;9.12;45.42;96468.09;4349996;32;20299;-56
2022/03/01 10:25:27;;;;;;;11.53;4.73;;;;;;;8.27;39.96;96461.84;4317307;32;20289;-58
2022/03/01 10:27:57;;;;;;;5.20;4.70;;;;;;;8.69;45.23;96456.69;4355296;32;20328;-59
2022/03/01 10:30:34;;;;;;;7.37;4.53;;;;;;;8.57;43.69;96450.75;4364231;32;20292;-58
2022/03/01 10:33:15;;;;;;;5.93;4.53;;;;;;;8.59;45.08;96457.37;4363768;32;20276;-57
2022/03/01 10:35:51;;;;;;;6.73;4.33;;;;;;;8.72;42.35;96453.53;4339301;32;20367;-58
2022/03/01 10:38:20;;;;;;;4.73;4.40;;;;;;;8.83;42.63;96455.19;4329662;32;20281;-58
2022/03/01 10:40:59;;;;;;;5.53;5.10;;;;;;;9.25;44.32;96454.38;4324237;32;20299;-58
2022/03/01 10:43:27;;;;;;;5.13;4.60;;;;;;;9.02;39.42;96449.47;4377571;32;20314;-59
2022/03/01 10:45:52;;;;;;;5.23;4.83;;;;;;;8.98;42.46;96448.41;4328431;32;20335;-59
2022/03/01 10:48:34;;;;;;;4.43;3.77;;;;;;;8.79;39.95;96448.00;4308025;32;20285;-59
2022/03/01 10:51:10;;;;;;;4.87;4.37;;;;;;;9.25;42.95;96447.25;4341615;32;20235;-59
2022/03/01 10:53:42;;;;;;;5.20;4.20;;;;;;;8.92;40.56;96442.28;4347674;32;20407;-59
2022/03/01 10:56:13;;;;;;;5.03;4.60;;;;;;;8.59;40.05;96427.47;4338544;32;20277;-58
2022/03/01 10:58:43;;;;;;;7.97;4.03;;;;;;;8.57;40.07;96425.09;4351800;32;20285;-59
2022/03/01 11:01:11;;;;;;;7.37;4.73;;;;;;;8.35;40.35;96419.09;4352501;32;20296;-59
2022/03/01 11:03:39;;;;;;;4.20;3.83;;;;;;;8.53;43.20;96423.19;4352850;32;20292;-59
2022/03/01 11:06:06;;;;;;;4.77;4.37;;;;;;;8.96;38.67;96407.09;4346004;32;20481;-59
2022/03/01 11:08:37;;;;;;;4.23;3.93;;;;;;;9.18;39.34;96411.47;4303609;33;20348;-58
2022/03/01 11:11:11;;;;;;;4.30;3.90;;;;;;;9.11;38.29;96402.97;4285314;33;20287;-58
2022/03/01 11:13:44;;;;;;;4.60;3.97;;;;;;;9.19;40.92;96395.31;4297946;33;20278;-59
2022/03/01 11:16:37;;;;;;;6.07;4.20;;;;;;;9.41;40.36;96387.19;4349880;32;20315;-58
2022/03/01 11:19:21;;;;;;;4.60;4.00;;;;;;;9.12;38.76;96383.38;4315835;32;20387;-58
2022/03/01 11:21:51;;;;;;;4.70;4.30;;;;;;;9.50;39.83;96384.88;4328461;32;20362;-58
2022/03/01 11:24:29;;;;;;;6.13;4.70;;;;;;;9.09;37.31;96381.25;4333079;32;20328;-59
2022/03/01 11:27:07;;;;;;;6.37;4.03;;;;;;;8.90;39.39;96381.69;4352546;32;20299;-59
2022/03/01 11:29:50;;;;;;;5.33;4.83;;;;;;;9.08;38.82;96374.34;4327602;32;20375;-58
2022/03/01 11:32:19;;;;;;;4.67;4.10;;;;;;;8.60;35.79;96366.41;4340491;32;20299;-59
2022/03/01 11:34:47;;;;;;;3.90;3.57;;;;;;;8.59;33.77;96358.72;4304857;33;20305;-59
2022/03/01 11:37:22;;;;;;;4.23;3.77;;;;;;;8.91;37.40;96350.72;4320223;32;20312;-59
2022/03/01 11:40:04;;;;;;;4.70;3.83;;;;;;;8.76;33.16;96343.47;4318772;32;20273;-58
2022/03/01 11:42:34;;;;;;;3.90;3.50;;;;;;;9.07;38.20;96344.44;4347963;32;20291;-58
2022/03/01 11:45:10;;;;;;;3.60;3.40;;;;;;;9.32;36.38;96335.03;4353365;32;20278;-59
2022/03/01 11:47:40;;;;;;;4.00;3.70;;;;;;;9.65;39.25;96335.37;4348291;32;20269;-58
2022/03/01 11:50:23;;;;;;;5.33;3.73;;;;;;;8.87;31.14;96329.28;4370553;32;20435;-58